Time;durP1;ratioP1;P1;durP2;ratioP2;P2;SDS_P1;SDS_P2;PMS_P1;PMS_P2;Temp;Humidity;BMP_temperature;BMP_pressure;BME280_temperature;BME280_humidity;BME280_pressure;Samples;Min_cycle;Max_cycle;Signal;HPM_P1;HPM_P2
2021/12/24 00:01:47;;;;;;;98.15;29.30;;;7.40;99.90;;;;;;5029340;28;20128;-66
2021/12/24 00:04:12;;;;;;;92.85;29.33;;;7.50;99.90;;;;;;5029393;28;20045;-67
2021/12/24 00:06:38;;;;;;;87.57;30.70;;;7.50;99.90;;;;;;5030461;28;20059;-66
2021/12/24 00:09:05;;;;;;;95.32;31.88;;;7.50;99.90;;;;;;5030562;28;20033;-66
2021/12/24 00:11:32;;;;;;;97.25;32.30;;;7.50;99.90;;;;;;5029216;28;20121;-66
2021/12/24 00:13:59;;;;;;;100.68;31.10;;;7.50;99.90;;;;;;5030554;28;20072;-67
2021/12/24 00:17:03;;;;;;;106.00;30.60;;;7.50;99.90;;;;;;5030436;28;20041;-66
2021/12/24 00:35:34;;;;;;;93.75;28.55;;;7.70;99.90;;;;;;5030452;28;20182;-66
2021/12/24 00:38:06;;;;;;;94.97;28.15;;;7.70;99.90;;;;;;5030380;28;20120;-66
2021/12/24 00:40:42;;;;;;;89.80;26.80;;;7.70;99.90;;;;;;5029980;28;20105;-66
2021/12/24 00:43:08;;;;;;;103.13;27.25;;;7.80;99.90;;;;;;5028814;28;20604;-66
2021/12/24 00:45:37;;;;;;;104.88;28.25;;;7.70;99.90;;;;;;5028746;28;20120;-66
2021/12/24 00:48:03;;;;;;;96.07;26.45;;;7.80;99.90;;;;;;5028671;28;20544;-64
2021/12/24 00:50:32;;;;;;;80.25;26.92;;;7.80;99.90;;;;;;5029919;28;20068;-64
2021/12/24 00:53:02;;;;;;;93.93;31.42;;;7.80;99.90;;;;;;5029809;28;20029;-64
2021/12/24 00:55:30;;;;;;;86.82;28.08;;;7.90;99.90;;;;;;5029049;28;20049;-64
2021/12/24 00:57:58;;;;;;;88.45;27.30;;;7.90;99.90;;;;;;5030094;28;20104;-64
2021/12/24 01:00:27;;;;;;;82.05;29.88;;;7.90;99.90;;;;;;5029665;28;20045;-64
2021/12/24 01:02:54;;;;;;;81.63;25.95;;;7.90;99.90;;;;;;5029481;28;20121;-64
2021/12/24 01:05:22;;;;;;;79.85;28.13;;;8.00;99.90;;;;;;5029952;28;20046;-64
2021/12/24 01:07:49;;;;;;;74.63;27.80;;;8.00;99.90;;;;;;5029259;28;20509;-64
2021/12/24 01:10:26;;;;;;;70.50;26.15;;;8.00;99.90;;;;;;5028608;28;20092;-64
2021/12/24 01:12:51;;;;;;;76.50;25.15;;;8.00;99.90;;;;;;5029332;28;20038;-64
2021/12/24 01:15:17;;;;;;;73.57;25.90;;;8.10;99.90;;;;;;5029525;28;20439;-64
2021/12/24 01:18:02;;;;;;;67.32;24.10;;;8.10;99.90;;;;;;5029988;28;20147;-64
2021/12/24 01:38:48;;;;;;;65.65;23.95;;;8.20;99.90;;;;;;5028434;28;20060;-64
2021/12/24 01:42:39;;;;;;;61.35;21.90;;;8.20;99.90;;;;;;5028278;28;20049;-64
2021/12/24 01:43:59;;;;;;;51.72;20.65;;;8.20;99.90;;;;;;5028909;28;20056;-64
2021/12/24 01:46:24;;;;;;;56.55;22.88;;;8.30;99.90;;;;;;5028194;28;20042;-64
2021/12/24 01:48:50;;;;;;;49.28;20.50;;;8.30;99.90;;;;;;5029438;28;20575;-64
2021/12/24 01:51:15;;;;;;;56.67;23.10;;;8.40;99.90;;;;;;5029180;28;20084;-64
2021/12/24 01:53:41;;;;;;;45.95;20.58;;;8.40;99.90;;;;;;5029269;28;20061;-64
2021/12/24 01:56:07;;;;;;;48.03;21.15;;;8.30;99.90;;;;;;5029369;28;20532;-64
2021/12/24 01:58:32;;;;;;;50.92;22.70;;;8.40;99.90;;;;;;5029493;28;20085;-64
2021/12/24 02:00:58;;;;;;;43.20;19.67;;;8.40;99.90;;;;;;5028992;28;20037;-64
2021/12/24 02:03:23;;;;;;;43.60;18.58;;;8.50;99.90;;;;;;5029109;28;20081;-64
2021/12/24 02:05:49;;;;;;;42.88;19.55;;;8.50;99.90;;;;;;5029274;28;20065;-64
2021/12/24 02:08:16;;;;;;;40.00;18.50;;;8.50;99.90;;;;;;5028300;28;20401;-64
2021/12/24 02:10:42;;;;;;;42.10;20.30;;;8.50;99.90;;;;;;5029170;28;20056;-64
2021/12/24 02:13:09;;;;;;;42.75;19.00;;;8.60;99.90;;;;;;5028906;28;20045;-64
2021/12/24 02:18:37;;;;;;;39.17;17.92;;;8.60;99.90;;;;;;5029330;28;20046;-63
2021/12/24 02:28:17;;;;;;;39.35;18.63;;;8.60;99.90;;;;;;5031569;28;20045;-63
2021/12/24 02:29:15;;;;;;;42.58;19.35;;;8.70;99.90;;;;;;5032661;28;20115;-63
2021/12/24 02:31:41;;;;;;;42.42;19.65;;;8.70;99.90;;;;;;5032373;28;20444;-63
2021/12/24 02:34:07;;;;;;;42.80;19.20;;;8.70;99.90;;;;;;5032206;28;20037;-64
2021/12/24 02:36:33;;;;;;;45.65;19.55;;;8.70;99.90;;;;;;5032130;28;20529;-64
2021/12/24 02:38:59;;;;;;;47.13;21.77;;;8.70;99.90;;;;;;5031293;28;20069;-63
2021/12/24 02:41:24;;;;;;;40.45;18.60;;;8.70;99.90;;;;;;5032317;28;20033;-64
2021/12/24 02:43:51;;;;;;;38.50;19.25;;;8.80;99.90;;;;;;5032036;28;20045;-63
2021/12/24 02:46:28;;;;;;;35.30;15.93;;;8.80;99.90;;;;;;5032053;28;20082;-63
2021/12/24 02:54:10;;;;;;;39.78;18.38;;;8.80;99.90;;;;;;5031060;28;20111;-63
2021/12/24 02:56:38;;;;;;;37.17;17.15;;;8.90;99.90;;;;;;5032099;28;20042;-63
2021/12/24 02:59:07;;;;;;;43.05;20.20;;;8.90;99.90;;;;;;5031941;28;20049;-63
2021/12/24 03:01:38;;;;;;;40.33;17.52;;;8.90;99.90;;;;;;5031694;28;20068;-63
2021/12/24 03:04:04;;;;;;;35.38;16.08;;;8.90;99.90;;;;;;5031797;28;20042;-63
2021/12/24 03:06:37;;;;;;;32.78;16.13;;;8.90;99.90;;;;;;5031855;28;20041;-63
2021/12/24 03:09:09;;;;;;;34.55;16.23;;;8.90;99.90;;;;;;5031893;28;20491;-63
2021/12/24 03:11:35;;;;;;;36.08;16.50;;;8.90;99.90;;;;;;5031702;28;20072;-63
2021/12/24 03:14:03;;;;;;;30.92;14.32;;;8.90;99.90;;;;;;5031212;28;20072;-63
2021/12/24 03:16:29;;;;;;;31.55;15.55;;;8.90;99.90;;;;;;5031824;28;20052;-63
2021/12/24 03:18:55;;;;;;;34.92;15.05;;;8.90;99.90;;;;;;5031721;28;20029;-63
2021/12/24 03:21:36;;;;;;;34.17;15.23;;;8.90;99.90;;;;;;5031611;28;20042;-63
2021/12/24 03:26:30;;;;;;;32.13;15.32;;;8.90;99.90;;;;;;5031194;28;19921;-63
2021/12/24 03:28:56;;;;;;;29.40;13.52;;;8.90;99.90;;;;;;5031521;28;20064;-63
2021/12/24 03:31:21;;;;;;;29.67;13.38;;;9.00;99.90;;;;;;5031083;28;20501;-63
2021/12/24 03:33:48;;;;;;;31.33;13.52;;;9.00;99.90;;;;;;5029926;28;20044;-63
2021/12/24 03:36:14;;;;;;;29.20;13.48;;;9.00;99.90;;;;;;5031247;28;20048;-63
2021/12/24 03:38:40;;;;;;;27.70;13.55;;;9.00;99.90;;;;;;5031258;28;20555;-63
2021/12/24 03:41:06;;;;;;;26.00;11.45;;;9.00;99.90;;;;;;5030878;28;20033;-63
2021/12/24 03:43:32;;;;;;;26.67;12.32;;;9.00;99.90;;;;;;5031181;28;20103;-63
2021/12/24 03:46:06;;;;;;;28.40;12.35;;;9.10;99.90;;;;;;5031145;28;20064;-63
2021/12/24 03:51:30;;;;;;;24.17;11.10;;;9.10;99.90;;;;;;5030766;28;20124;-64
2021/12/24 03:56:41;;;;;;;25.25;12.68;;;9.20;99.90;;;;;;5030966;28;20525;-63
2021/12/24 03:59:07;;;;;;;26.67;13.50;;;9.20;99.90;;;;;;5030948;28;20045;-64
2021/12/24 04:01:34;;;;;;;31.40;14.65;;;9.20;99.90;;;;;;5030634;28;20444;-63
2021/12/24 04:04:00;;;;;;;27.17;14.40;;;9.40;99.90;;;;;;5030421;28;20048;-64
2021/12/24 04:06:25;;;;;;;33.35;17.45;;;9.40;99.90;;;;;;5030868;28;20410;-63
2021/12/24 04:08:51;;;;;;;35.30;16.70;;;9.50;99.90;;;;;;5030725;28;20037;-63
2021/12/24 04:11:17;;;;;;;35.50;15.63;;;9.40;99.90;;;;;;5030545;28;20041;-63
2021/12/24 04:13:42;;;;;;;31.75;15.48;;;9.40;99.90;;;;;;5030595;28;20037;-63
2021/12/24 04:16:08;;;;;;;36.25;19.23;;;9.40;99.90;;;;;;5030595;28;20686;-63
2021/12/24 04:18:42;;;;;;;37.33;18.83;;;9.50;99.90;;;;;;5030251;28;20099;-63
2021/12/24 04:26:38;;;;;;;40.20;19.73;;;9.50;99.90;;;;;;5030291;28;20108;-63
2021/12/24 04:29:05;;;;;;;39.75;19.65;;;9.40;99.90;;;;;;5030047;28;20045;-63
2021/12/24 04:31:41;;;;;;;44.70;20.65;;;9.40;99.90;;;;;;5029143;28;20041;-63
2021/12/24 04:34:06;;;;;;;47.10;22.40;;;9.40;99.90;;;;;;5030211;28;20120;-63
2021/12/24 04:36:48;;;;;;;42.70;20.48;;;9.40;99.90;;;;;;5030249;28;20124;-63
2021/12/24 04:39:37;;;;;;;46.92;19.63;;;9.40;99.90;;;;;;5030028;28;20048;-63
2021/12/24 05:04:03;;;;;;;47.28;19.73;;;9.40;99.90;;;;;;4987476;28;20057;-63
2021/12/24 05:06:35;;;;;;;49.95;22.15;;;9.40;99.90;;;;;;5021588;28;20122;-63
2021/12/24 05:09:07;;;;;;;50.25;22.70;;;9.40;99.90;;;;;;5029952;28;20033;-63
2021/12/24 05:11:34;;;;;;;53.78;23.08;;;9.40;99.90;;;;;;5029777;28;20041;-63
2021/12/24 05:13:59;;;;;;;59.78;25.48;;;9.40;99.90;;;;;;5029571;28;20037;-63
2021/12/24 05:16:37;;;;;;;59.72;24.77;;;9.40;99.90;;;;;;5029730;28;20042;-63
2021/12/24 05:21:47;;;;;;;56.05;21.25;;;9.40;99.90;;;;;;5029691;28;20045;-63
2021/12/24 05:24:16;;;;;;;63.55;24.05;;;9.40;99.90;;;;;;5029382;28;20042;-64
2021/12/24 05:26:48;;;;;;;52.78;20.85;;;9.30;99.90;;;;;;5029833;28;20188;-63
2021/12/24 05:29:15;;;;;;;51.42;22.08;;;9.30;99.90;;;;;;5028207;28;20049;-63
2021/12/24 05:31:41;;;;;;;51.38;22.70;;;9.40;99.90;;;;;;5029652;28;20069;-63
2021/12/24 05:34:07;;;;;;;55.55;22.50;;;9.40;99.90;;;;;;5028048;28;20034;-63
2021/12/24 05:36:33;;;;;;;53.03;24.70;;;9.30;99.90;;;;;;5029745;28;20037;-63
2021/12/24 05:38:59;;;;;;;47.33;20.73;;;9.30;99.90;;;;;;5029562;28;20037;-63
2021/12/24 05:41:26;;;;;;;52.72;19.95;;;9.30;99.90;;;;;;5029406;28;20042;-63
2021/12/24 05:43:52;;;;;;;52.45;22.92;;;9.40;99.90;;;;;;5029060;28;20041;-63
2021/12/24 05:46:17;;;;;;;52.53;20.83;;;9.30;99.90;;;;;;5029616;28;20400;-64
2021/12/24 05:48:43;;;;;;;51.13;20.55;;;9.40;99.90;;;;;;5029711;28;20063;-63
2021/12/24 05:51:10;;;;;;;47.72;20.08;;;9.30;99.90;;;;;;5029152;28;20037;-64
2021/12/24 05:53:36;;;;;;;52.85;20.38;;;9.40;99.90;;;;;;5029600;28;20469;-64
2021/12/24 05:56:02;;;;;;;55.53;23.50;;;9.40;99.90;;;;;;5033260;28;20041;-64
2021/12/24 05:58:28;;;;;;;55.72;23.63;;;9.40;99.90;;;;;;5033146;28;20498;-63
2021/12/24 06:00:54;;;;;;;46.78;20.60;;;9.40;99.90;;;;;;5032023;28;20049;-63
2021/12/24 06:03:20;;;;;;;52.00;22.13;;;9.40;99.90;;;;;;5031495;28;20489;-63
2021/12/24 06:05:45;;;;;;;47.63;22.58;;;9.40;99.90;;;;;;5033176;28;20029;-64
2021/12/24 06:08:11;;;;;;;48.67;21.88;;;9.30;99.90;;;;;;5033091;28;20180;-63
2021/12/24 06:10:37;;;;;;;50.05;21.20;;;9.30;99.90;;;;;;5033119;28;20037;-63
2021/12/24 06:13:05;;;;;;;49.85;20.65;;;9.40;99.90;;;;;;5032397;28;20456;-64
2021/12/24 06:15:40;;;;;;;45.35;20.13;;;9.40;99.90;;;;;;5032920;28;20045;-63
2021/12/24 06:18:12;;;;;;;48.45;22.05;;;9.30;99.90;;;;;;5032933;28;20112;-63
2021/12/24 06:20:38;;;;;;;;;;;9.40;99.90;;;;;;5033314;28;20041;-63
2021/12/24 06:23:07;;;;;;;45.00;18.90;;;9.30;99.90;;;;;;5032427;28;19916;-63
2021/12/24 06:25:32;;;;;;;43.83;19.70;;;9.30;99.90;;;;;;5032382;28;20041;-64
2021/12/24 06:27:58;;;;;;;51.03;19.40;;;9.30;99.90;;;;;;5032702;28;20103;-63
2021/12/24 06:30:28;;;;;;;43.22;17.80;;;9.30;99.90;;;;;;5032849;28;20462;-63
2021/12/24 06:32:58;;;;;;;53.03;19.60;;;9.30;99.90;;;;;;5031017;28;20041;-64
2021/12/24 06:35:24;;;;;;;50.85;19.02;;;9.30;99.90;;;;;;5032416;28;20045;-64
2021/12/24 06:37:51;;;;;;;44.28;19.45;;;9.30;99.90;;;;;;5032368;28;20037;-64
2021/12/24 06:40:17;;;;;;;48.58;18.58;;;9.30;99.90;;;;;;5032193;28;20117;-64
2021/12/24 06:42:42;;;;;;;53.63;19.30;;;9.30;99.90;;;;;;5032359;28;20525;-64
2021/12/24 06:45:09;;;;;;;46.80;18.48;;;9.20;99.90;;;;;;5032314;28;20029;-64
2021/12/24 06:47:34;;;;;;;42.38;19.13;;;9.20;99.90;;;;;;5032108;28;20502;-64
2021/12/24 06:50:00;;;;;;;36.80;16.48;;;9.20;99.90;;;;;;5032040;28;20040;-64
2021/12/24 06:52:25;;;;;;;50.80;19.17;;;9.20;99.90;;;;;;5027438;28;20053;-64
2021/12/24 06:54:51;;;;;;;38.35;15.95;;;9.30;99.90;;;;;;5027614;28;20654;-64
2021/12/24 06:57:19;;;;;;;42.65;17.40;;;9.30;99.90;;;;;;5028843;28;20038;-64
2021/12/24 06:59:45;;;;;;;42.58;17.05;;;9.30;99.90;;;;;;5027774;28;20055;-64
2021/12/24 07:02:11;;;;;;;36.65;16.02;;;9.20;99.90;;;;;;5028849;28;20072;-64
2021/12/24 07:04:36;;;;;;;50.35;18.38;;;9.20;99.90;;;;;;5028263;28;20041;-64
2021/12/24 07:07:02;;;;;;;40.97;18.35;;;9.20;99.90;;;;;;5028022;28;20045;-64
2021/12/24 07:09:27;;;;;;;41.72;17.25;;;9.20;99.90;;;;;;5028459;28;20037;-64
2021/12/24 07:11:53;;;;;;;37.72;15.13;;;9.20;99.90;;;;;;5028798;28;20038;-64
2021/12/24 07:14:19;;;;;;;42.15;17.23;;;9.20;99.90;;;;;;5028695;28;20424;-63
2021/12/24 07:16:44;;;;;;;33.22;14.73;;;9.10;99.90;;;;;;5027244;28;20107;-62
2021/12/24 07:19:10;;;;;;;38.50;15.75;;;9.10;99.90;;;;;;5028669;28;20090;-62
2021/12/24 07:21:35;;;;;;;38.63;15.82;;;9.10;99.90;;;;;;5028420;28;20048;-62
2021/12/24 07:24:06;;;;;;;35.42;13.93;;;9.10;99.90;;;;;;5028269;28;20041;-61
2021/12/24 07:26:31;;;;;;;37.33;16.70;;;9.10;99.90;;;;;;5028139;28;20041;-63
2021/12/24 07:28:58;;;;;;;36.08;15.95;;;9.10;99.90;;;;;;5028178;28;20052;-63
2021/12/24 07:31:23;;;;;;;36.40;14.27;;;9.10;99.90;;;;;;5028273;28;20048;-63
2021/12/24 07:33:49;;;;;;;40.70;17.92;;;9.10;99.90;;;;;;5026902;28;20045;-63
2021/12/24 07:36:15;;;;;;;29.60;12.50;;;9.10;99.90;;;;;;5028199;28;20045;-63
2021/12/24 07:38:40;;;;;;;33.70;15.25;;;9.10;99.90;;;;;;5027945;28;20587;-64
2021/12/24 07:41:06;;;;;;;36.30;14.63;;;9.10;99.90;;;;;;5027656;28;20057;-63
2021/12/24 07:43:32;;;;;;;38.83;14.35;;;9.00;99.90;;;;;;5028829;28;20040;-63
2021/12/24 07:45:58;;;;;;;37.33;15.20;;;9.00;99.90;;;;;;5029688;28;20116;-63
2021/12/24 07:48:30;;;;;;;31.60;12.75;;;9.00;99.90;;;;;;5030536;28;20514;-63
2021/12/24 07:53:24;;;;;;;39.38;14.70;;;9.00;99.90;;;;;;5030712;28;20041;-63
2021/12/24 07:55:50;;;;;;;36.10;14.98;;;9.00;99.90;;;;;;5030974;28;20091;-63
2021/12/24 07:58:17;;;;;;;31.17;13.90;;;9.00;99.90;;;;;;5030875;28;20048;-64
2021/12/24 08:00:44;;;;;;;35.53;13.13;;;9.00;99.90;;;;;;5029444;28;20474;-64
2021/12/24 08:03:10;;;;;;;32.47;14.27;;;9.00;99.90;;;;;;5050063;28;20473;-64
2021/12/24 08:05:40;;;;;;;28.08;11.93;;;9.00;99.90;;;;;;5050310;28;20033;-64
2021/12/24 08:08:07;;;;;;;29.73;12.43;;;9.00;99.90;;;;;;5050852;28;20075;-64
2021/12/24 08:10:34;;;;;;;31.85;13.05;;;9.00;99.90;;;;;;5049092;28;20716;-64
2021/12/24 08:13:01;;;;;;;31.40;12.65;;;9.00;99.90;;;;;;5049366;28;20040;-64
2021/12/24 08:15:26;;;;;;;30.00;11.40;;;9.00;99.90;;;;;;5050633;28;20033;-64
2021/12/24 08:17:52;;;;;;;28.90;11.70;;;9.00;99.90;;;;;;5050553;28;20045;-64
2021/12/24 08:20:22;;;;;;;37.70;12.25;;;9.00;99.90;;;;;;5048775;28;20049;-64
2021/12/24 08:22:49;;;;;;;36.72;12.23;;;9.10;99.90;;;;;;5049068;28;20056;-64
2021/12/24 08:25:16;;;;;;;33.92;12.98;;;9.00;99.90;;;;;;5050315;28;20033;-64
2021/12/24 08:27:42;;;;;;;34.53;12.73;;;9.10;99.90;;;;;;5050308;28;20049;-64
2021/12/24 08:30:09;;;;;;;34.70;11.80;;;9.00;99.90;;;;;;5050323;28;20047;-64
2021/12/24 08:32:38;;;;;;;30.50;11.00;;;9.00;99.90;;;;;;5049759;28;20045;-64
2021/12/24 08:35:06;;;;;;;32.97;12.18;;;9.10;99.90;;;;;;5033277;28;20049;-64
2021/12/24 08:37:32;;;;;;;30.52;12.50;;;9.00;99.90;;;;;;5010577;28;20038;-65
2021/12/24 08:39:58;;;;;;;31.85;12.55;;;9.10;99.90;;;;;;5010690;28;20173;-65
2021/12/24 08:42:23;;;;;;;30.67;12.18;;;9.00;99.90;;;;;;5010035;28;20042;-65
2021/12/24 08:44:49;;;;;;;32.83;12.02;;;9.00;99.90;;;;;;5010044;28;20056;-65
2021/12/24 08:47:14;;;;;;;34.95;11.48;;;9.00;99.90;;;;;;5010104;28;20042;-65
2021/12/24 08:49:40;;;;;;;32.40;11.75;;;9.00;99.90;;;;;;5010448;28;20045;-65
2021/12/24 08:52:06;;;;;;;33.67;12.15;;;9.00;99.90;;;;;;5059225;23;20469;-64
2021/12/24 08:54:31;;;;;;;30.05;11.25;;;9.00;99.90;;;;;;5029691;28;20069;-64
2021/12/24 08:56:58;;;;;;;33.88;10.80;;;9.00;99.90;;;;;;5045034;28;20496;-64
2021/12/24 08:59:24;;;;;;;30.77;11.05;;;9.00;99.90;;;;;;5012226;28;20053;-63
2021/12/24 09:01:54;;;;;;;32.80;10.38;;;9.00;99.90;;;;;;5029365;28;20049;-64
2021/12/24 09:04:20;;;;;;;31.30;10.07;;;9.00;99.90;;;;;;5029179;28;20047;-63
2021/12/24 09:06:46;;;;;;;36.22;11.50;;;9.00;99.90;;;;;;5029795;28;20492;-63
2021/12/24 09:09:11;;;;;;;34.35;11.93;;;9.00;99.90;;;;;;5029954;28;20104;-63
2021/12/24 09:11:40;;;;;;;41.22;11.45;;;9.00;99.90;;;;;;5029659;28;20033;-63
2021/12/24 09:14:07;;;;;;;34.03;11.10;;;9.00;99.90;;;;;;5029374;28;20083;-63
2021/12/24 09:16:34;;;;;;;38.58;10.60;;;9.00;99.90;;;;;;5029533;28;20076;-63
2021/12/24 09:19:04;;;;;;;33.30;11.30;;;9.00;99.90;;;;;;5029855;28;20091;-64
2021/12/24 09:21:30;;;;;;;33.63;10.03;;;9.00;99.90;;;;;;5029768;28;20042;-62
2021/12/24 09:23:58;;;;;;;34.28;11.48;;;9.00;99.90;;;;;;5029480;28;20041;-62
2021/12/24 09:26:28;;;;;;;38.05;11.45;;;9.00;99.90;;;;;;5029696;28;20042;-63
2021/12/24 09:28:56;;;;;;;32.97;10.30;;;9.00;99.90;;;;;;5030775;28;20040;-62
2021/12/24 09:31:21;;;;;;;35.20;10.10;;;9.10;99.90;;;;;;5033476;28;20507;-64
2021/12/24 09:33:47;;;;;;;32.50;9.82;;;9.10;99.90;;;;;;5033492;28;20042;-63
2021/12/24 09:36:13;;;;;;;28.13;9.35;;;9.10;99.90;;;;;;5033650;28;20133;-64
2021/12/24 09:38:38;;;;;;;32.70;9.98;;;9.10;99.90;;;;;;5032589;28;20121;-63
2021/12/24 09:41:04;;;;;;;28.23;9.45;;;9.20;99.90;;;;;;5033359;28;20037;-63
2021/12/24 09:43:29;;;;;;;31.90;8.80;;;9.20;99.90;;;;;;5032899;28;20037;-63
2021/12/24 09:45:55;;;;;;;27.80;9.10;;;9.20;99.90;;;;;;5033468;28;20041;-62
2021/12/24 09:48:20;;;;;;;22.63;8.57;;;9.20;99.90;;;;;;5033575;28;20139;-62
2021/12/24 09:50:46;;;;;;;21.90;7.93;;;9.30;99.90;;;;;;5033453;28;20441;-63
2021/12/24 09:53:13;;;;;;;22.85;7.63;;;9.20;99.90;;;;;;5032858;28;20084;-63
2021/12/24 09:55:38;;;;;;;29.40;8.80;;;9.30;99.90;;;;;;5033305;28;20042;-63
2021/12/24 09:58:04;;;;;;;25.38;7.50;;;9.30;99.90;;;;;;5033040;28;20044;-63
2021/12/24 10:00:31;;;;;;;28.38;8.05;;;9.30;99.90;;;;;;5033207;28;20045;-63
2021/12/24 10:02:58;;;;;;;22.15;7.18;;;9.30;99.90;;;;;;5032559;28;20140;-63
2021/12/24 10:05:38;;;;;;;28.63;7.45;;;9.30;99.90;;;;;;5033036;28;20104;-63
2021/12/24 10:08:14;;;;;;;22.08;7.68;;;9.30;99.90;;;;;;5031747;28;20049;-63
2021/12/24 10:10:43;;;;;;;18.27;7.28;;;9.30;99.90;;;;;;5031686;28;20041;-63
2021/12/24 10:13:27;;;;;;;24.90;8.60;;;9.30;99.90;;;;;;5032806;28;20065;-63
2021/12/24 10:16:05;;;;;;;23.48;7.50;;;9.40;99.90;;;;;;5032700;28;20405;-63
2021/12/24 10:18:38;;;;;;;24.27;7.32;;;9.30;99.90;;;;;;5015112;28;20084;-63
2021/12/24 10:21:08;;;;;;;24.30;8.48;;;9.40;99.90;;;;;;5031032;28;20052;-63
2021/12/24 10:23:47;;;;;;;22.45;7.07;;;9.40;99.90;;;;;;5032698;28;20033;-63
2021/12/24 10:26:28;;;;;;;19.63;7.88;;;9.40;99.90;;;;;;5031300;28;20041;-63
2021/12/24 10:28:57;;;;;;;24.88;8.05;;;9.40;99.90;;;;;;5032708;28;20036;-63
2021/12/24 10:31:30;;;;;;;23.17;7.40;;;9.40;99.90;;;;;;5032352;28;20116;-64
2021/12/24 10:34:09;;;;;;;26.00;8.20;;;9.40;99.90;;;;;;5030961;28;20063;-63
2021/12/24 10:36:54;;;;;;;20.02;7.32;;;9.40;99.90;;;;;;5032498;28;20114;-63
2021/12/24 10:39:33;;;;;;;21.77;7.30;;;9.40;99.90;;;;;;5031170;28;20081;-63
2021/12/24 10:42:00;;;;;;;26.27;8.25;;;9.40;99.90;;;;;;5031123;28;20042;-63
2021/12/24 10:44:32;;;;;;;26.05;8.07;;;9.40;99.90;;;;;;5032213;28;20681;-63
2021/12/24 10:47:04;;;;;;;15.30;7.00;;;9.40;99.90;;;;;;5032210;28;20535;-63
2021/12/24 10:54:57;;;;;;;26.20;8.73;;;9.40;99.90;;;;;;5032283;28;20045;-63
2021/12/24 10:57:26;;;;;;;27.20;9.57;;;9.40;99.90;;;;;;5032363;28;20056;-63
2021/12/24 10:59:56;;;;;;;25.63;8.00;;;9.40;99.90;;;;;;5031195;28;20501;-63
2021/12/24 11:02:27;;;;;;;26.30;8.77;;;9.40;99.90;;;;;;5030888;28;20398;-63
2021/12/24 11:04:53;;;;;;;28.60;8.93;;;9.40;99.90;;;;;;5030469;28;20049;-65
2021/12/24 11:07:40;;;;;;;22.15;7.88;;;9.30;99.90;;;;;;5032069;28;20060;-63
2021/12/24 11:10:19;;;;;;;22.42;8.50;;;9.30;99.90;;;;;;5032280;28;20501;-63
2021/12/24 11:12:46;;;;;;;23.98;8.90;;;9.30;99.90;;;;;;5030631;28;20041;-63
2021/12/24 11:15:21;;;;;;;23.13;8.38;;;9.30;99.90;;;;;;5031687;28;20042;-63
2021/12/24 11:17:48;;;;;;;26.92;7.70;;;9.30;99.90;;;;;;5031873;28;20223;-63
2021/12/24 11:20:14;;;;;;;23.05;7.63;;;9.40;99.90;;;;;;5029749;28;20048;-63
2021/12/24 11:22:50;;;;;;;25.88;7.85;;;9.40;99.90;;;;;;5029314;28;20029;-63
2021/12/24 11:25:18;;;;;;;23.40;8.02;;;9.40;99.90;;;;;;5029268;28;20048;-62
2021/12/24 11:27:43;;;;;;;24.02;8.35;;;9.40;99.90;;;;;;5029495;28;20053;-62
2021/12/24 11:30:09;;;;;;;18.80;6.80;;;9.40;99.90;;;;;;5030384;28;20261;-62
2021/12/24 11:32:36;;;;;;;21.52;8.52;;;9.40;99.90;;;;;;5029898;28;20068;-62
2021/12/24 11:35:02;;;;;;;23.15;7.95;;;9.30;99.90;;;;;;5030313;28;20041;-62
2021/12/24 11:37:29;;;;;;;23.10;7.50;;;9.30;99.90;;;;;;5031453;28;20052;-63
2021/12/24 11:39:55;;;;;;;26.33;7.78;;;9.30;99.90;;;;;;5031369;28;20041;-63
2021/12/24 11:42:22;;;;;;;25.02;8.05;;;9.30;99.90;;;;;;5031194;28;20041;-63
2021/12/24 11:44:49;;;;;;;24.77;8.77;;;9.30;99.90;;;;;;5031218;28;20053;-64
2021/12/24 11:47:15;;;;;;;19.52;8.52;;;9.20;99.90;;;;;;5031151;28;20061;-64
2021/12/24 11:49:41;;;;;;;22.98;8.20;;;9.20;99.90;;;;;;5031181;28;20096;-63
2021/12/24 11:52:07;;;;;;;28.27;7.93;;;9.20;99.90;;;;;;5030595;28;20047;-64
2021/12/24 11:54:33;;;;;;;26.15;7.40;;;9.20;99.90;;;;;;5029626;28;20077;-64
2021/12/24 11:56:58;;;;;;;20.63;6.80;;;9.20;99.90;;;;;;5029519;28;20068;-63
2021/12/24 11:59:39;;;;;;;22.45;5.90;;;9.20;99.90;;;;;;5031023;28;20420;-64
2021/12/24 12:02:05;;;;;;;17.15;5.82;;;9.10;99.90;;;;;;5030761;28;20446;-64
2021/12/24 12:04:31;;;;;;;23.05;6.05;;;9.10;99.90;;;;;;5030635;28;20084;-63
2021/12/24 12:07:18;;;;;;;17.33;5.55;;;9.10;99.90;;;;;;5030726;28;20072;-63
2021/12/24 12:09:46;;;;;;;20.08;5.97;;;9.10;99.90;;;;;;5030908;28;20107;-63
2021/12/24 12:12:15;;;;;;;9.07;2.85;;;9.10;99.90;;;;;;5030861;28;20087;-63
2021/12/24 12:14:41;;;;;;;3.88;1.80;;;8.90;99.90;;;;;;5030522;28;20045;-63
2021/12/24 12:17:07;;;;;;;2.55;1.90;;;8.40;99.90;;;;;;5030462;28;20452;-63
2021/12/24 12:22:19;;;;;;;2.72;2.20;;;7.80;99.90;;;;;;5030364;28;20557;-63
2021/12/24 12:27:27;;;;;;;2.28;1.80;;;7.50;99.90;;;;;;5030449;28;20041;-64
2021/12/24 12:29:53;;;;;;;2.58;2.00;;;7.40;99.90;;;;;;5030216;28;20065;-63
2021/12/24 12:32:18;;;;;;;5.25;2.40;;;7.40;99.90;;;;;;5030135;28;20037;-63
2021/12/24 12:34:43;;;;;;;8.20;2.40;;;7.40;99.90;;;;;;5030359;28;20098;-63
2021/12/24 12:37:17;;;;;;;3.20;2.15;;;7.40;99.90;;;;;;5030283;28;20044;-63
2021/12/24 12:39:44;;;;;;;3.20;2.35;;;7.40;99.90;;;;;;5030174;28;20033;-63
2021/12/24 12:42:09;;;;;;;3.05;2.35;;;7.40;99.90;;;;;;5028816;28;20037;-63
2021/12/24 12:44:38;;;;;;;3.40;2.47;;;7.40;99.90;;;;;;5029886;28;20109;-63
2021/12/24 12:47:12;;;;;;;3.25;2.30;;;7.40;99.90;;;;;;5029889;28;20038;-63
2021/12/24 12:49:38;;;;;;;3.30;2.40;;;7.40;99.90;;;;;;5030279;28;20063;-63
2021/12/24 12:52:16;;;;;;;3.67;2.90;;;7.50;99.90;;;;;;5029712;28;20392;-63
2021/12/24 12:54:49;;;;;;;3.95;2.90;;;7.50;99.90;;;;;;5029031;28;20124;-63
2021/12/24 12:57:21;;;;;;;4.63;3.45;;;7.50;99.90;;;;;;5029756;28;20041;-62
2021/12/24 13:00:08;;;;;;;4.60;3.08;;;7.50;99.90;;;;;;5029980;28;20088;-63
2021/12/24 13:03:01;;;;;;;4.55;3.50;;;7.60;99.90;;;;;;5029653;28;20096;-62
2021/12/24 13:05:29;;;;;;;4.53;3.70;;;7.60;99.90;;;;;;5029609;28;20052;-63
2021/12/24 13:07:59;;;;;;;5.35;3.75;;;7.60;99.90;;;;;;5029955;28;20038;-63
2021/12/24 13:10:26;;;;;;;6.40;4.07;;;7.60;99.90;;;;;;5029938;28;20040;-63
2021/12/24 13:13:03;;;;;;;5.30;4.00;;;7.60;99.90;;;;;;5029604;28;20042;-63
2021/12/24 13:15:28;;;;;;;6.05;4.15;;;7.60;99.90;;;;;;5029984;28;20041;-63
2021/12/24 13:17:58;;;;;;;6.32;4.05;;;7.60;99.90;;;;;;5029713;28;20037;-64
2021/12/24 13:23:19;;;;;;;4.85;3.72;;;7.60;99.90;;;;;;5029559;28;20052;-63
2021/12/24 13:25:45;;;;;;;5.45;4.32;;;7.60;99.90;;;;;;5029878;28;20047;-63
2021/12/24 13:28:10;;;;;;;5.93;4.32;;;7.50;99.90;;;;;;5029514;28;20448;-63
2021/12/24 13:30:36;;;;;;;5.82;4.38;;;7.50;99.90;;;;;;5029349;28;20665;-62
2021/12/24 13:33:06;;;;;;;6.10;4.35;;;7.50;99.90;;;;;;5029484;28;20060;-64
2021/12/24 13:35:46;;;;;;;6.07;4.73;;;7.50;99.90;;;;;;5029967;28;20584;-62
2021/12/24 13:38:13;;;;;;;6.43;4.60;;;7.40;99.90;;;;;;5029428;28;20493;-62
2021/12/24 13:40:39;;;;;;;5.93;4.78;;;7.40;99.90;;;;;;5029470;28;20061;-63
2021/12/24 13:43:08;;;;;;;6.20;4.60;;;7.40;99.90;;;;;;5028926;28;20042;-63
2021/12/24 13:45:37;;;;;;;6.43;5.13;;;7.30;99.90;;;;;;5029737;28;20041;-63
2021/12/24 13:48:11;;;;;;;5.80;4.65;;;7.30;99.90;;;;;;5029517;28;20045;-63
2021/12/24 13:56:01;;;;;;;6.35;4.60;;;7.30;99.90;;;;;;5029564;28;20476;-62
2021/12/24 13:58:27;;;;;;;5.97;3.70;;;7.30;99.90;;;;;;5029421;28;20042;-63
2021/12/24 14:00:57;;;;;;;5.10;3.58;;;7.20;99.90;;;;;;5029317;28;20038;-63
2021/12/24 14:03:26;;;;;;;4.95;3.55;;;7.20;99.90;;;;;;5027502;28;20616;-63
2021/12/24 14:05:56;;;;;;;4.90;3.72;;;7.10;99.90;;;;;;5029388;28;20041;-63
2021/12/24 14:08:24;;;;;;;5.40;3.83;;;7.20;99.90;;;;;;5029190;28;20033;-63
2021/12/24 14:11:21;;;;;;;5.47;3.88;;;7.10;99.90;;;;;;5029117;28;20425;-63
2021/12/24 14:13:53;;;;;;;4.60;3.42;;;7.10;99.90;;;;;;5027958;28;20489;-63
2021/12/24 14:18:55;;;;;;;4.53;3.50;;;7.20;99.90;;;;;;5033223;28;20665;-63
2021/12/24 14:24:14;;;;;;;5.50;3.38;;;7.20;99.90;;;;;;5031609;28;20087;-63
2021/12/24 14:26:43;;;;;;;4.80;3.60;;;7.20;99.90;;;;;;5032866;28;20490;-62
2021/12/24 14:29:10;;;;;;;4.47;3.53;;;7.30;99.90;;;;;;5032585;28;20041;-63
2021/12/24 14:32:02;;;;;;;4.20;3.40;;;7.30;99.90;;;;;;5032590;28;20037;-62
2021/12/24 14:34:34;;;;;;;4.00;3.58;;;7.30;99.90;;;;;;5031402;28;20084;-63
2021/12/24 14:37:02;;;;;;;3.90;3.30;;;7.30;99.90;;;;;;5032964;28;20095;-63
2021/12/24 14:39:58;;;;;;;4.43;3.38;;;7.40;99.90;;;;;;5032328;28;20060;-63
2021/12/24 14:42:25;;;;;;;4.60;3.35;;;7.40;99.90;;;;;;5029421;28;20061;-62
2021/12/24 14:44:55;;;;;;;5.40;3.95;;;7.40;99.90;;;;;;5032505;28;20518;-63